Avon, Illinois
Current Conditions -  °F | °C
As of 2:35 AM on Friday 31 Oct 2014 (Local Time) from KMQB Reporting Station
Overcast Overcast  
Wind Chill: 39°   Ceiling: 3700
Heat Index: 45°   Visibility: 10mi
Dew Point: 42°   Wind: 14mph
Humidity: 89%   Direction: 330°NNW
Pressure: 30.15"   Gusts: NA
Location:  40.66°N, 90.43°W
Report Text: KMQB 310735Z AUTO 33012KT 10SM BKN037 OVC055 07/06 A3015 RMK AO2 T00720055
Loading
Personal Weather Stations






























Interactive Weather Map
Tropical Storm Tracking
New forecast layout! Learn more

10-Day Weather Forecast

Advertisements
Track Severe Weather on mobile